| time (UTC) | temp F | wind direction | speed MPH | gust MPH | rain 1hr in | rain 24hr in | rain mn in | humidity % | barometer mb |
| 20260903163019 | 65 | 9 | 0.0 | 2.0 | 0.00 | 0.19 | 0.19 | 93 | 1013.6 |
| 20260903162019 | 65 | 337 | 0.0 | 1.0 | 0.00 | 0.19 | 0.19 | 93 | 1013.8 |
| 20260903161019 | 65 | 222 | 0.0 | 2.0 | 0.00 | 0.19 | 0.19 | 93 | 1014.0 |
| 20260903160019 | 65 | 8 | 0.0 | 2.0 | 0.00 | 0.19 | 0.19 | 93 | 1014.1 |
| 20260903155019 | 65 | 332 | 0.0 | 2.0 | 0.00 | 0.19 | 0.19 | 94 | 1014.2 |
| 20260903154040 | 65 | 20 | 0.0 | 3.0 | 0.00 | 0.19 | 0.19 | 94 | 1014.2 |
| 20260903153017 | 65 | 19 | 0.0 | 2.0 | 0.00 | 0.19 | 0.19 | 94 | 1014.4 |
| 20260903152020 | 65 | 4 | 0.0 | 2.0 | 0.00 | 0.19 | 0.19 | 94 | 1014.5 |
| 20260903151020 | 65 | 151 | 0.0 | 2.0 | 0.00 | 0.19 | 0.19 | 94 | 1014.6 |
| 20260903150040 | 65 | 344 | 0.0 | 2.0 | 0.00 | 0.19 | 0.19 | 94 | 1014.7 |
| 20260903145017 | 64 | 336 | 0.0 | 3.0 | 0.00 | 0.19 | 0.19 | 94 | 1014.9 |
| 20260903144017 | 64 | 301 | 0.0 | 2.0 | 0.00 | 0.19 | 0.19 | 94 | 1015.0 |
| 20260903143018 | 64 | 317 | 0.0 | 1.0 | 0.00 | 0.19 | 0.19 | 94 | 1015.0 |
| 20260903142017 | 64 | 333 | 0.0 | 2.0 | 0.00 | 0.19 | 0.19 | 94 | 1015.1 |
| 20260903141018 | 64 | 298 | 0.0 | 2.0 | 0.00 | 0.19 | 0.19 | 94 | 1015.0 |
| 20260903140021 | 64 | 261 | 0.0 | 3.0 | 0.00 | 0.19 | 0.19 | 94 | 1015.0 |
| 20260903135019 | 64 | 312 | 0.0 | 4.0 | 0.00 | 0.19 | 0.19 | 94 | 1015.2 |
| 20260903134018 | 63 | 287 | 0.0 | 1.0 | 0.00 | 0.19 | 0.19 | 94 | 1015.2 |
| 20260903133018 | 63 | 213 | 0.0 | 2.0 | 0.00 | 0.19 | 0.19 | 94 | 1015.1 |
| 20260903132019 | 63 | 3 | 0.0 | 1.0 | 0.00 | 0.19 | 0.19 | 94 | 1015.2 |
| 20260903131019 | 63 | 320 | 0.0 | 1.0 | 0.00 | 0.19 | 0.19 | 94 | 1015.3 |
| 20260903130019 | 63 | 192 | 0.0 | 3.0 | 0.00 | 0.19 | 0.19 | 94 | 1015.4 |
| 20260903125036 | 63 | 292 | 0.0 | 2.0 | 0.00 | 0.19 | 0.19 | 94 | 1015.6 |
| 20260903124019 | 63 | 196 | 0.0 | 3.0 | 0.00 | 0.19 | 0.19 | 94 | 1015.6 |
| 20260903123019 | 63 | 284 | 0.0 | 3.0 | 0.00 | 0.19 | 0.19 | 94 | 1015.8 |
| 20260903122020 | 63 | 212 | 1.0 | 4.0 | 0.00 | 0.19 | 0.19 | 94 | 1015.9 |
| 20260903121020 | 63 | 203 | 1.0 | 6.0 | 0.00 | 0.19 | 0.19 | 94 | 1016.0 |
| 20260903120017 | 62 | 341 | 1.0 | 3.0 | 0.00 | 0.19 | 0.19 | 94 | 1016.1 |
| 20260903115017 | 62 | 211 | 1.0 | 6.0 | 0.00 | 0.19 | 0.19 | 93 | 1016.1 |
| 20260903114018 | 62 | 196 | 1.0 | 6.0 | 0.00 | 0.19 | 0.19 | 93 | 1016.0 |
| 20260903113018 | 62 | 270 | 1.0 | 5.0 | 0.00 | 0.19 | 0.19 | 93 | 1015.9 |
| 20260903112021 | 63 | 359 | 0.0 | 3.0 | 0.00 | 0.19 | 0.19 | 93 | 1016.0 |
| 20260903111018 | 63 | 225 | 0.0 | 4.0 | 0.00 | 0.19 | 0.19 | 93 | 1015.9 |
| 20260903110038 | 62 | 251 | 0.0 | 2.0 | 0.00 | 0.19 | 0.19 | 93 | 1015.9 |
| 20260903105018 | 62 | 276 | 0.0 | 2.0 | 0.00 | 0.19 | 0.19 | 92 | 1016.0 |
| 20260903104018 | 62 | 263 | 0.0 | 3.0 | 0.01 | 0.19 | 0.19 | 92 | 1016.2 |
| 20260903103038 | 62 | 236 | 0.0 | 3.0 | 0.03 | 0.18 | 0.18 | 92 | 1016.3 |
| 20260903102039 | 62 | 231 | 0.0 | 1.0 | 0.10 | 0.18 | 0.18 | 91 | 1016.3 |
| 20260903101100 | 62 | 232 | 0.0 | 2.0 | 0.16 | 0.18 | 0.18 | 91 | 1016.3 |
| 20260903100019 | 62 | 219 | 1.0 | 3.0 | 0.18 | 0.18 | 0.18 | 90 | 1016.4 |
| 20260903095019 | 63 | 206 | 0.0 | 3.0 | 0.18 | 0.18 | 0.18 | 90 | 1016.6 |
| 20260903094019 | 64 | 244 | 1.0 | 5.0 | 0.18 | 0.18 | 0.18 | 90 | 1016.6 |
| 20260903093019 | 64 | 31 | 0.0 | 1.0 | 0.15 | 0.15 | 0.15 | 90 | 1016.7 |
| 20260903092016 | 64 | 259 | 1.0 | 2.0 | 0.09 | 0.09 | 0.09 | 90 | 1017.1 |
| 20260903091017 | 64 | 275 | 2.0 | 4.0 | 0.02 | 0.02 | 0.02 | 89 | 1016.9 |
| 20260903090017 | 64 | 220 | 0.0 | 2.0 | 0.00 | 0.00 | 0.00 | 90 | 1016.2 |
| 20260903085020 | 64 | 338 | 0.0 | 2.0 | 0.00 | 0.00 | 0.00 | 90 | 1016.0 |
| 20260903084040 | 65 | 357 | 0.0 | 2.0 | 0.00 | 0.00 | 0.00 | 90 | 1016.1 |
| 20260903083017 | 64 | 307 | 0.0 | 2.0 | 0.00 | 0.00 | 0.00 | 90 | 1016.2 |
| 20260903082059 | 65 | 333 | 0.0 | 2.0 | 0.00 | 0.00 | 0.00 | 90 | 1016.2 |
| 20260903081018 | 65 | 359 | 0.0 | 2.0 | 0.00 | 0.00 | 0.00 | 91 | 1016.6 |
| 20260903080018 | 65 | 285 | 1.0 | 4.0 | 0.00 | 0.00 | 0.00 | 91 | 1016.7 |
| 20260903075019 | 64 | 212 | 1.0 | 4.0 | 0.00 | 0.00 | 0.00 | 91 | 1016.6 |
| 20260903074019 | 64 | 360 | 0.0 | 2.0 | 0.00 | 0.00 | 0.00 | 90 | 1016.5 |
| 20260903073059 | 64 | 344 | 0.0 | 2.0 | 0.00 | 0.00 | 0.00 | 90 | 1016.6 |
| 20260903072018 | 64 | 352 | 0.0 | 2.0 | 0.00 | 0.00 | 0.00 | 89 | 1016.7 |
| 20260903071020 | 64 | 82 | 0.0 | 3.0 | 0.00 | 0.00 | 0.00 | 90 | 1016.7 |
| 20260903070039 | 64 | 10 | 0.0 | 3.0 | 0.00 | 0.00 | 0.00 | 90 | 1017.1 |
| 20260903065019 | 64 | 353 | 0.0 | 4.0 | 0.00 | 0.00 | 0.00 | 92 | 1017.5 |
| 20260903064017 | 64 | 224 | 1.0 | 2.0 | 0.00 | 0.00 | 0.00 | 93 | 1017.9 |
| 20260903063017 | 63 | 200 | 0.0 | 3.0 | 0.00 | 0.00 | 0.00 | 93 | 1018.1 |
| 20260903062020 | 63 | 234 | 0.0 | 2.0 | 0.00 | 0.00 | 0.00 | 94 | 1018.2 |
| 20260903061020 | 63 | 305 | 0.0 | 1.0 | 0.00 | 0.00 | 0.00 | 94 | 1018.2 |
| 20260903060020 | 63 | 327 | 0.0 | 1.0 | 0.00 | 0.00 | 0.00 | 94 | 1018.3 |
| 20260903055020 | 63 | 327 | 0.0 | 1.0 | 0.00 | 0.00 | 0.00 | 94 | 1018.5 |
| 20260903054018 | 63 | 354 | 0.0 | 1.0 | 0.00 | 0.00 | 0.00 | 94 | 1018.5 |
| 20260903053018 | 63 | 359 | 0.0 | 1.0 | 0.00 | 0.00 | 0.00 | 94 | 1018.5 |
| 20260903052017 | 63 | 119 | 0.0 | 2.0 | 0.00 | 0.00 | 0.00 | 94 | 1018.6 |
| 20260903051018 | 62 | 329 | 0.0 | 1.0 | 0.00 | 0.00 | 0.00 | 94 | 1018.5 |
| 20260903050018 | 62 | 295 | 0.0 | 1.0 | 0.00 | 0.00 | 0.00 | 94 | 1018.6 |
| 20260903045021 | 62 | 329 | 0.0 | 1.0 | 0.00 | 0.00 | 0.00 | 94 | 1018.8 |
| 20260903044018 | 62 | 11 | 0.0 | 1.0 | 0.00 | 0.00 | 0.00 | 94 | 1018.9 |
| 20260903043019 | 62 | 356 | 0.0 | 1.0 | 0.00 | 0.00 | 0.00 | 93 | 1019.0 |
| 20260903042039 | 62 | 9 | 0.0 | 2.0 | 0.00 | 0.00 | 0.00 | 93 | 1018.9 |
| 20260903041019 | 62 | 26 | 0.0 | 1.0 | 0.00 | 0.00 | 0.00 | 93 | 1019.1 |
| 20260903040019 | 62 | 23 | 0.0 | 1.0 | 0.00 | 0.00 | 0.00 | 93 | 1019.5 |
| 20260903035019 | 62 | 11 | 0.0 | 1.0 | 0.00 | 0.00 | 0.00 | 93 | 1019.6 |
| 20260903034019 | 62 | 339 | 0.0 | 1.0 | 0.00 | 0.00 | 0.00 | 93 | 1019.7 |
| 20260903033019 | 62 | 328 | 0.0 | 1.0 | 0.00 | 0.00 | 0.00 | 93 | 1019.7 |
| 20260903032019 | 62 | 348 | 0.0 | 1.0 | 0.00 | 0.00 | 0.00 | 93 | 1019.8 |
| 20260903031016 | 62 | 296 | 0.0 | 1.0 | 0.00 | 0.00 | 0.00 | 93 | 1019.9 |
| 20260903030017 | 61 | 309 | 0.0 | 1.0 | 0.00 | 0.00 | 0.00 | 93 | 1019.7 |
| 20260903025017 | 61 | 321 | 0.0 | 1.0 | 0.00 | 0.00 | 0.00 | 93 | 1019.8 |
| 20260903024020 | 61 | 318 | 0.0 | 1.0 | 0.00 | 0.00 | 0.00 | 92 | 1019.7 |
| 20260903023020 | 62 | 318 | 0.0 | 1.0 | 0.00 | 0.00 | 0.00 | 92 | 1019.9 |
| 20260903022038 | 62 | 2 | 0.0 | 1.0 | 0.00 | 0.00 | 0.00 | 92 | 1020.1 |
| 20260903021018 | 62 | 323 | 0.0 | 1.0 | 0.00 | 0.00 | 0.00 | 92 | 1020.2 |
| 20260903020018 | 62 | 352 | 0.0 | 0.0 | 0.00 | 0.00 | 0.00 | 92 | 1020.3 |
| 20260903015018 | 62 | 336 | 0.0 | 1.0 | 0.00 | 0.00 | 0.00 | 92 | 1020.3 |
| 20260903014039 | 62 | 340 | 0.0 | 1.0 | 0.00 | 0.00 | 0.00 | 92 | 1020.2 |
| 20260903013039 | 62 | 341 | 0.0 | 2.0 | 0.00 | 0.00 | 0.00 | 92 | 1020.1 |
| 20260903012018 | 61 | 349 | 0.0 | 1.0 | 0.00 | 0.00 | 0.00 | 92 | 1019.9 |
| 20260903011018 | 61 | 343 | 0.0 | 1.0 | 0.00 | 0.00 | 0.00 | 92 | 1019.9 |
| 20260903010019 | 61 | 339 | 0.0 | 1.0 | 0.00 | 0.00 | 0.00 | 91 | 1020.0 |
| 20260903005019 | 61 | 325 | 0.0 | 1.0 | 0.00 | 0.00 | 0.00 | 91 | 1020.1 |
| 20260903004019 | 61 | 331 | 0.0 | 0.0 | 0.00 | 0.00 | 0.00 | 91 | 1020.3 |
| 20260903003016 | 61 | 306 | 0.0 | 1.0 | 0.00 | 0.00 | 0.00 | 91 | 1020.3 |
| 20260903002020 | 61 | 16 | 0.0 | 1.0 | 0.00 | 0.00 | 0.00 | 91 | 1020.4 |
| 20260903001019 | 61 | 312 | 0.0 | 1.0 | 0.00 | 0.00 | 0.00 | 90 | 1020.6 |
| 20260903000020 | 60 | 329 | 0.0 | 2.0 | 0.00 | 0.00 | 0.00 | 90 | 1020.6 |
| 20260902235017 | 60 | 313 | 0.0 | 1.0 | 0.00 | 0.00 | 0.00 | 89 | 1020.6 |
| 20260902234017 | 61 | 339 | 0.0 | 0.0 | 0.00 | 0.00 | 0.00 | 89 | 1020.9 |
| 20260902233017 | 61 | 333 | 0.0 | 1.0 | 0.00 | 0.00 | 0.00 | 88 | 1021.0 |
| 20260902232018 | 62 | 335 | 0.0 | 1.0 | 0.00 | 0.00 | 0.00 | 87 | 1020.8 |
| 20260902231021 | 62 | 344 | 0.0 | 1.0 | 0.00 | 0.00 | 0.00 | 86 | 1020.8 |
| 20260902230018 | 63 | 344 | 0.0 | 1.0 | 0.00 | 0.00 | 0.00 | 85 | 1021.1 |
| 20260902225018 | 63 | 356 | 0.0 | 1.0 | 0.00 | 0.00 | 0.00 | 85 | 1021.3 |
| 20260902224018 | 64 | 346 | 0.0 | 1.0 | 0.00 | 0.00 | 0.00 | 84 | 1021.5 |
| 20260902223018 | 64 | 8 | 0.0 | 1.0 | 0.00 | 0.00 | 0.00 | 84 | 1021.7 |
| 20260902222018 | 64 | 44 | 0.0 | 1.0 | 0.00 | 0.00 | 0.00 | 83 | 1021.7 |
| 20260902221019 | 64 | 331 | 0.0 | 1.0 | 0.00 | 0.00 | 0.00 | 83 | 1021.6 |
| 20260902220019 | 65 | 254 | 0.0 | 1.0 | 0.00 | 0.00 | 0.00 | 82 | 1021.7 |
| 20260902215019 | 65 | 4 | 0.0 | 2.0 | 0.00 | 0.00 | 0.00 | 82 | 1021.6 |
| 20260902214019 | 65 | 327 | 0.0 | 2.0 | 0.00 | 0.00 | 0.00 | 81 | 1021.6 |
| 20260902213019 | 65 | 19 | 0.0 | 2.0 | 0.00 | 0.00 | 0.00 | 81 | 1021.6 |
| 20260902212020 | 66 | 19 | 0.0 | 2.0 | 0.00 | 0.00 | 0.00 | 80 | 1021.5 |
| 20260902211020 | 66 | 41 | 0.0 | 1.0 | 0.00 | 0.00 | 0.00 | 79 | 1021.6 |
| 20260902210017 | 67 | 343 | 0.0 | 2.0 | 0.00 | 0.00 | 0.00 | 78 | 1021.7 |
| 20260902205017 | 67 | 355 | 0.0 | 2.0 | 0.00 | 0.00 | 0.00 | 76 | 1021.7 |
| 20260902204017 | 67 | 359 | 0.0 | 3.0 | 0.00 | 0.00 | 0.00 | 78 | 1022.0 |
| 20260902203020 | 67 | 19 | 0.0 | 4.0 | 0.00 | 0.00 | 0.00 | 78 | 1022.1 |
| 20260902202020 | 67 | 358 | 0.0 | 2.0 | 0.00 | 0.00 | 0.00 | 77 | 1022.2 |
| 20260902201018 | 67 | 321 | 0.0 | 2.0 | 0.00 | 0.00 | 0.00 | 77 | 1022.1 |
| 20260902200017 | 67 | 293 | 0.0 | 1.0 | 0.00 | 0.00 | 0.00 | 76 | 1022.4 |
| 20260902195018 | 68 | 5 | 0.0 | 2.0 | 0.00 | 0.00 | 0.00 | 76 | 1022.6 |
| 20260902194018 | 68 | 335 | 0.0 | 2.0 | 0.00 | 0.00 | 0.00 | 75 | 1022.6 |
| 20260902193039 | 68 | 352 | 0.0 | 3.0 | 0.00 | 0.00 | 0.00 | 75 | 1022.6 |
| 20260902192039 | 68 | 337 | 0.0 | 2.0 | 0.00 | 0.00 | 0.00 | 75 | 1022.6 |
| 20260902191019 | 68 | 4 | 0.0 | 3.0 | 0.00 | 0.00 | 0.00 | 75 | 1022.5 |
| 20260902190019 | 68 | 359 | 0.0 | 3.0 | 0.00 | 0.00 | 0.00 | 76 | 1022.4 |
| 20260902185019 | 67 | 1 | 0.0 | 2.0 | 0.00 | 0.00 | 0.00 | 77 | 1022.4 |
| 20260902184019 | 67 | 357 | 0.0 | 2.0 | 0.00 | 0.00 | 0.00 | 77 | 1022.6 |
| 20260902183019 | 66 | 356 | 0.0 | 2.0 | 0.00 | 0.00 | 0.00 | 78 | 1022.7 |
| 20260902182016 | 66 | 6 | 0.0 | 3.0 | 0.00 | 0.00 | 0.00 | 78 | 1022.7 |
| 20260902181017 | 66 | 2 | 1.0 | 3.0 | 0.00 | 0.00 | 0.00 | 78 | 1022.8 |
| 20260902180020 | 66 | 7 | 1.0 | 3.0 | 0.00 | 0.00 | 0.00 | 78 | 1023.0 |
| 20260902175020 | 66 | 10 | 1.0 | 2.0 | 0.00 | 0.00 | 0.00 | 77 | 1022.8 |
| 20260902174018 | 67 | 8 | 1.0 | 3.0 | 0.00 | 0.00 | 0.00 | 76 | 1022.7 |
| 20260902173017 | 67 | 7 | 0.0 | 2.0 | 0.00 | 0.00 | 0.00 | 76 | 1022.8 |
| 20260902172018 | 67 | 5 | 0.0 | 2.0 | 0.00 | 0.00 | 0.00 | 77 | 1022.9 |
| 20260902171018 | 67 | 354 | 0.0 | 3.0 | 0.00 | 0.00 | 0.00 | 77 | 1022.8 |
| 20260902170018 | 67 | 4 | 0.0 | 3.0 | 0.00 | 0.00 | 0.00 | 77 | 1022.6 |
| 20260902165021 | 67 | 7 | 0.0 | 4.0 | 0.00 | 0.00 | 0.00 | 77 | 1022.8 |
| 20260902164018 | 67 | 353 | 0.0 | 3.0 | 0.00 | 0.00 | 0.00 | 78 | 1023.0 |